Time;durP1;ratioP1;P1;durP2;ratioP2;P2;SDS_P1;SDS_P2;PMS_P1;PMS_P2;Temp;Humidity;BMP_temperature;BMP_pressure;BME280_temperature;BME280_humidity;BME280_pressure;Samples;Min_cycle;Max_cycle;Signal;HPM_P1;HPM_P2
2023/01/18 00:01:05;;;;;;;11.47;3.67;;;;;;;11.59;86.38;95702.22;4986545;28;20190;-76
2023/01/18 00:03:34;;;;;;;10.00;4.00;;;;;;;11.60;86.29;95715.09;4986557;28;20189;-74
2023/01/18 00:06:03;;;;;;;10.17;3.37;;;;;;;11.66;85.29;95711.22;4986343;28;20242;-72
2023/01/18 00:08:32;;;;;;;8.60;3.80;;;;;;;11.63;85.28;95717.44;4986471;28;20219;-75
2023/01/18 00:11:11;;;;;;;13.20;4.03;;;;;;;11.66;85.06;95714.69;4985923;28;20247;-75
2023/01/18 00:13:38;;;;;;;13.63;7.57;;;;;;;11.68;84.04;95714.56;4988458;28;20180;-73
2023/01/18 00:16:17;;;;;;;10.13;3.77;;;;;;;11.71;84.89;95719.50;4989970;28;21232;-73
2023/01/18 00:18:50;;;;;;;10.03;3.70;;;;;;;11.71;84.32;95709.13;4989657;28;20225;-73
2023/01/18 00:21:18;;;;;;;10.40;3.80;;;;;;;11.62;84.49;95704.59;4991331;28;20225;-72
2023/01/18 00:23:45;;;;;;;8.87;3.60;;;;;;;11.69;83.90;95718.78;4972603;28;20204;-72
2023/01/18 00:26:13;;;;;;;10.03;4.27;;;;;;;11.73;83.84;95730.59;4989451;28;20719;-73
2023/01/18 00:28:40;;;;;;;11.77;3.63;;;;;;;11.72;84.08;95723.78;5022259;28;20758;-73
2023/01/18 00:31:19;;;;;;;14.70;4.27;;;;;;;11.69;83.56;95705.81;4989598;28;20196;-72
2023/01/18 00:33:48;;;;;;;8.60;3.03;;;;;;;11.85;83.13;95709.00;4991195;28;20611;-73
2023/01/18 00:36:16;;;;;;;8.30;3.10;;;;;;;11.81;83.73;95710.16;4988159;28;20193;-73
2023/01/18 00:38:50;;;;;;;7.93;3.10;;;;;;;11.95;83.03;95716.00;4989727;28;20208;-73
2023/01/18 00:41:18;;;;;;;12.90;4.43;;;;;;;11.92;82.37;95712.78;4990320;28;20182;-72
2023/01/18 00:43:46;;;;;;;4.37;2.80;;;;;;;11.85;82.68;95714.19;4988832;28;20752;-73
2023/01/18 00:46:18;;;;;;;10.97;3.60;;;;;;;11.89;81.78;95719.03;4991047;28;20283;-72
2023/01/18 00:48:47;;;;;;;10.03;2.80;;;;;;;11.95;82.36;95712.59;4989377;28;20225;-71
2023/01/18 00:51:17;;;;;;;6.20;2.47;;;;;;;11.93;82.50;95719.66;4989474;28;20194;-71
2023/01/18 00:53:44;;;;;;;8.80;3.60;;;;;;;11.90;82.02;95714.66;4989252;28;20670;-73
2023/01/18 00:56:16;;;;;;;7.50;2.87;;;;;;;11.94;81.77;95716.09;4990709;28;20193;-75
2023/01/18 00:58:44;;;;;;;11.10;3.57;;;;;;;11.97;82.12;95715.91;4988841;28;20220;-77
2023/01/18 01:01:12;;;;;;;6.63;2.90;;;;;;;11.96;81.41;95703.84;5020848;28;20278;-72
2023/01/18 01:06:43;;;;;;;7.97;3.07;;;;;;;12.08;80.77;95708.97;4989063;28;20217;-73
2023/01/18 01:09:15;;;;;;;9.97;3.90;;;;;;;12.08;80.84;95714.16;4990382;28;20223;-73
2023/01/18 01:12:31;;;;;;;11.33;3.03;;;;;;;12.00;80.74;95716.50;4990024;28;20184;-73
2023/01/18 01:28:21;;;;;;;13.47;3.63;;;;;;;11.97;80.47;95705.53;4988741;28;20668;-72
2023/01/18 01:30:48;;;;;;;8.73;2.73;;;;;;;12.00;80.60;95697.50;4988638;28;20223;-71
2023/01/18 01:33:16;;;;;;;11.17;3.40;;;;;;;12.04;80.39;95704.13;4988020;28;20197;-72
2023/01/18 01:35:43;;;;;;;14.03;3.73;;;;;;;12.01;80.05;95701.75;4987897;28;20220;-71
2023/01/18 01:38:10;;;;;;;10.67;3.40;;;;;;;11.96;80.42;95691.72;4988721;28;20237;-71
2023/01/18 01:40:37;;;;;;;11.13;3.87;;;;;;;12.01;80.74;95706.97;4987281;28;20189;-72
2023/01/18 01:43:11;;;;;;;11.23;3.20;;;;;;;11.88;80.38;95696.63;4988851;28;20196;-71
2023/01/18 01:45:38;;;;;;;7.07;2.87;;;;;;;11.93;80.66;95709.28;4987035;28;20258;-71
2023/01/18 01:48:08;;;;;;;11.57;4.13;;;;;;;11.95;80.89;95710.00;4989828;28;20689;-72
2023/01/18 01:50:38;;;;;;;11.33;3.30;;;;;;;12.00;80.45;95719.09;5020342;28;20217;-74
2023/01/18 01:53:08;;;;;;;9.83;3.07;;;;;;;12.03;80.39;95725.84;4987465;28;20200;-71
2023/01/18 01:55:38;;;;;;;8.50;3.13;;;;;;;12.02;79.58;95704.25;4989863;28;20194;-72
2023/01/18 01:58:31;;;;;;;8.73;3.13;;;;;;;12.07;80.46;95707.34;4988165;28;20197;-74
2023/01/18 02:00:58;;;;;;;7.63;3.37;;;;;;;12.12;80.07;95701.78;4987825;28;20213;-75
2023/01/18 02:03:25;;;;;;;13.03;3.20;;;;;;;12.16;79.85;95705.81;4987374;28;20184;-72
2023/01/18 02:06:00;;;;;;;7.43;2.90;;;;;;;12.10;79.83;95690.69;4988869;28;20192;-72
2023/01/18 02:08:28;;;;;;;11.60;3.17;;;;;;;12.04;79.64;95699.75;4989446;28;20204;-72
2023/01/18 02:10:54;;;;;;;11.47;3.40;;;;;;;12.14;78.95;95708.53;4987802;28;20233;-72
2023/01/18 02:13:24;;;;;;;9.33;2.97;;;;;;;12.11;79.22;95720.91;4989405;28;20239;-73
2023/01/18 02:16:00;;;;;;;12.40;3.37;;;;;;;12.16;78.91;95716.19;4987537;28;20193;-73
2023/01/18 02:18:36;;;;;;;9.43;2.97;;;;;;;12.17;78.54;95730.84;4987948;28;20239;-72
2023/01/18 02:21:17;;;;;;;12.40;3.87;;;;;;;12.14;78.47;95724.09;4987511;28;20190;-73
2023/01/18 02:24:15;;;;;;;9.27;3.27;;;;;;;12.20;78.67;95717.63;4987803;28;20200;-78
2023/01/18 02:26:59;;;;;;;16.23;3.13;;;;;;;12.19;78.92;95716.81;4989242;28;20201;-72
2023/01/18 02:29:54;;;;;;;12.63;4.07;;;;;;;12.17;78.82;95723.91;4988136;28;20722;-72
2023/01/18 02:32:28;;;;;;;9.83;3.30;;;;;;;12.14;78.69;95716.31;4987742;28;20696;-73
2023/01/18 02:35:09;;;;;;;7.43;3.27;;;;;;;12.11;79.07;95726.94;4986878;28;20585;-73
2023/01/18 02:37:41;;;;;;;10.33;2.83;;;;;;;12.13;78.91;95717.28;5018474;28;20228;-72
2023/01/18 02:40:11;;;;;;;8.53;3.50;;;;;;;12.11;79.19;95715.72;4988922;28;20252;-75
2023/01/18 02:48:37;;;;;;;9.90;3.50;;;;;;;12.04;78.50;95714.50;4989074;28;20232;-73
2023/01/18 02:51:05;;;;;;;11.53;3.77;;;;;;;12.12;78.29;95730.34;4986508;28;20912;-72
2023/01/18 02:53:39;;;;;;;14.80;4.23;;;;;;;12.08;78.38;95716.75;4987933;28;20193;-73
2023/01/18 02:56:11;;;;;;;11.83;3.50;;;;;;;12.16;78.16;95718.78;4987285;28;20223;-72
2023/01/18 02:58:38;;;;;;;12.60;3.57;;;;;;;12.07;78.59;95720.31;4987152;28;20194;-72
2023/01/18 03:01:36;;;;;;;8.00;3.93;;;;;;;12.02;78.58;95703.41;4987308;28;20687;-72
2023/01/18 03:04:11;;;;;;;8.70;3.70;;;;;;;12.00;78.63;95710.47;4987563;28;20254;-72
2023/01/18 03:06:43;;;;;;;8.20;4.00;;;;;;;12.03;79.19;95723.25;4987566;28;20581;-72
2023/01/18 03:09:17;;;;;;;9.67;3.20;;;;;;;11.97;79.41;95721.91;4988239;28;20215;-72
2023/01/18 03:12:02;;;;;;;11.13;3.50;;;;;;;12.04;79.57;95727.47;4986895;28;20191;-72
2023/01/18 03:14:38;;;;;;;13.57;3.27;;;;;;;12.02;78.98;95725.00;5019687;28;20228;-73
2023/01/18 03:17:10;;;;;;;9.77;3.70;;;;;;;11.98;78.70;95713.19;4987516;28;21546;-73
2023/01/18 03:20:08;;;;;;;9.43;3.17;;;;;;;11.98;78.81;95695.03;4993710;28;20189;-73
2023/01/18 03:25:33;;;;;;;10.83;3.10;;;;;;;11.95;79.69;95728.97;5005117;28;20190;-73
2023/01/18 03:33:59;;;;;;;10.83;4.00;;;;;;;11.83;79.27;95718.66;5005080;28;20247;-77
2023/01/18 03:36:32;;;;;;;12.10;3.60;;;;;;;11.75;79.34;95713.16;5007887;28;20217;-76
2023/01/18 03:39:03;;;;;;;10.87;3.13;;;;;;;11.73;79.97;95707.25;5007499;28;20635;-73
2023/01/18 03:41:35;;;;;;;13.80;4.43;;;;;;;11.78;79.51;95706.03;5005045;28;20368;-73
2023/01/18 03:44:09;;;;;;;13.00;4.80;;;;;;;11.79;78.95;95704.22;4990098;28;20192;-72
2023/01/18 03:46:38;;;;;;;17.37;5.30;;;;;;;11.82;79.79;95714.41;5007798;28;20186;-72
2023/01/18 03:49:06;;;;;;;11.33;4.67;;;;;;;11.80;79.00;95693.78;4994347;28;20630;-71
2023/01/18 03:52:00;;;;;;;10.63;3.87;;;;;;;11.84;78.49;95690.00;5010514;28;20188;-75
2023/01/18 03:54:38;;;;;;;12.47;3.60;;;;;;;11.95;78.15;95702.22;5010227;28;20720;-74
2023/01/18 03:57:13;;;;;;;9.83;3.37;;;;;;;11.95;78.75;95712.59;5010234;28;20223;-72
2023/01/18 03:59:40;;;;;;;6.90;3.40;;;;;;;11.90;78.00;95712.06;5009731;28;20195;-76
2023/01/18 04:02:08;;;;;;;16.27;4.00;;;;;;;11.80;78.24;95716.28;5010071;28;20694;-76
2023/01/18 04:04:35;;;;;;;9.80;4.00;;;;;;;11.85;78.68;95727.97;5008338;28;20286;-75
2023/01/18 04:07:02;;;;;;;16.37;5.30;;;;;;;11.86;78.54;95734.00;5010599;28;20653;-71
2023/01/18 04:09:29;;;;;;;12.67;4.73;;;;;;;12.00;78.42;95710.47;5011053;28;20225;-76
2023/01/18 04:11:57;;;;;;;12.43;3.93;;;;;;;11.94;77.61;95705.72;5009740;28;21536;-73
2023/01/18 04:14:24;;;;;;;10.53;4.07;;;;;;;11.93;78.20;95719.66;5009679;28;20552;-72
2023/01/18 04:16:51;;;;;;;9.60;4.17;;;;;;;11.92;77.67;95716.22;5007185;28;20195;-72
2023/01/18 04:19:18;;;;;;;19.17;5.43;;;;;;;11.84;78.35;95695.19;5010894;28;20695;-73
2023/01/18 04:21:45;;;;;;;18.27;6.00;;;;;;;11.93;78.19;95717.06;5008245;28;20193;-71
2023/01/18 04:24:12;;;;;;;9.20;3.60;;;;;;;11.87;78.12;95700.16;5010561;28;20195;-72
2023/01/18 04:26:39;;;;;;;13.63;3.60;;;;;;;11.79;77.96;95699.88;5010478;28;20253;-76
2023/01/18 04:29:07;;;;;;;14.63;4.17;;;;;;;11.89;78.46;95718.22;5005871;28;20203;-70
2023/01/18 04:31:34;;;;;;;10.00;3.30;;;;;;;11.76;79.08;95728.63;5008521;28;20583;-72
2023/01/18 04:34:02;;;;;;;8.60;3.07;;;;;;;11.72;78.43;95708.22;5007480;28;20282;-72
2023/01/18 04:36:29;;;;;;;12.67;3.50;;;;;;;11.65;79.36;95706.94;5004194;28;20308;-73
2023/01/18 04:38:56;;;;;;;11.87;3.27;;;;;;;11.68;78.67;95704.19;5002392;28;20398;-76
2023/01/18 04:41:23;;;;;;;8.57;3.03;;;;;;;11.71;79.35;95720.34;5010932;28;20190;-71
2023/01/18 04:43:50;;;;;;;12.07;3.30;;;;;;;11.73;79.47;95731.44;5010322;28;20203;-72
2023/01/18 04:46:17;;;;;;;11.50;3.50;;;;;;;11.73;79.28;95717.63;5009789;28;20191;-73
2023/01/18 04:48:47;;;;;;;12.40;4.30;;;;;;;11.54;78.91;95705.13;5010643;28;20191;-74
2023/01/18 04:51:14;;;;;;;11.30;3.63;;;;;;;11.61;79.83;95723.66;4991112;28;20225;-73
2023/01/18 04:53:41;;;;;;;11.80;4.33;;;;;;;11.54;79.25;95701.72;5010480;28;20213;-73
2023/01/18 04:56:09;;;;;;;13.93;4.80;;;;;;;11.59;79.54;95721.19;5009127;28;20216;-73
2023/01/18 04:58:37;;;;;;;13.60;6.17;;;;;;;11.62;79.34;95727.94;5009617;28;20190;-73
2023/01/18 05:01:07;;;;;;;18.90;6.53;;;;;;;11.59;78.95;95733.31;5008440;28;20299;-73
2023/01/18 05:03:37;;;;;;;17.93;6.67;;;;;;;11.65;79.15;95719.91;5001622;28;20203;-72
2023/01/18 05:06:06;;;;;;;28.10;8.03;;;;;;;11.66;79.17;95732.84;4989152;28;20206;-71
2023/01/18 05:08:33;;;;;;;18.13;5.17;;;;;;;11.74;78.91;95722.75;5006758;28;20777;-74
2023/01/18 05:11:06;;;;;;;8.63;4.70;;;;;;;11.70;77.80;95713.53;4988776;28;20329;-72
2023/01/18 05:13:33;;;;;;;17.33;6.77;;;;;;;11.78;77.99;95715.56;4988938;28;20248;-76
2023/01/18 05:16:01;;;;;;;14.40;5.53;;;;;;;11.71;78.32;95716.91;5007832;28;20718;-73
2023/01/18 05:18:31;;;;;;;12.97;4.87;;;;;;;11.65;79.04;95730.28;5009357;28;20225;-73
2023/01/18 05:20:58;;;;;;;11.03;5.03;;;;;;;11.64;78.37;95723.47;5007603;28;20252;-73
2023/01/18 05:23:25;;;;;;;13.47;4.97;;;;;;;11.53;78.81;95715.59;5009840;28;20239;-74
2023/01/18 05:25:56;;;;;;;11.83;4.63;;;;;;;11.63;78.47;95737.34;4990611;28;20595;-76
2023/01/18 05:28:26;;;;;;;14.23;4.40;;;;;;;11.58;78.42;95734.28;5009646;28;20219;-76
2023/01/18 05:30:53;;;;;;;9.50;4.67;;;;;;;11.60;78.96;95747.94;5006771;28;20236;-76
2023/01/18 05:33:21;;;;;;;11.60;4.20;;;;;;;11.69;78.07;95747.31;5009531;28;20221;-73
2023/01/18 05:35:50;;;;;;;17.93;5.33;;;;;;;11.63;78.44;95740.78;5007842;28;20245;-74
2023/01/18 05:38:18;;;;;;;13.37;5.20;;;;;;;11.80;77.60;95744.81;5008481;28;20191;-73
2023/01/18 05:40:49;;;;;;;16.13;4.80;;;;;;;11.84;77.24;95746.25;5009452;28;20987;-74
2023/01/18 05:43:16;;;;;;;14.13;4.27;;;;;;;11.85;77.52;95751.31;5008171;28;20187;-74
2023/01/18 05:45:43;;;;;;;12.83;4.23;;;;;;;11.84;78.27;95767.81;5009306;28;20229;-73
2023/01/18 05:48:10;;;;;;;11.73;4.90;;;;;;;11.80;78.38;95740.44;5007898;28;20181;-75
2023/01/18 05:50:44;;;;;;;9.87;4.07;;;;;;;11.83;78.04;95734.22;5009311;28;20722;-76
2023/01/18 05:53:14;;;;;;;11.40;4.00;;;;;;;11.85;78.03;95740.13;5009115;28;20193;-75
2023/01/18 05:55:41;;;;;;;14.93;5.27;;;;;;;11.93;77.72;95743.00;5007552;28;20195;-73
2023/01/18 05:58:08;;;;;;;14.40;4.63;;;;;;;11.98;77.00;95740.88;5009045;28;20191;-76
2023/01/18 06:00:35;;;;;;;14.83;5.60;;;;;;;11.96;77.04;95741.00;5007441;28;20629;-73
2023/01/18 06:03:02;;;;;;;14.93;5.73;;;;;;;11.93;77.01;95738.63;5008933;28;20197;-72
2023/01/18 06:05:29;;;;;;;17.77;4.47;;;;;;;11.91;78.01;95731.91;5007373;28;20216;-77
2023/01/18 06:07:56;;;;;;;15.30;4.90;;;;;;;11.88;78.00;95745.91;5008881;28;20292;-73
2023/01/18 06:10:23;;;;;;;15.77;5.00;;;;;;;11.87;77.44;95730.47;5005908;28;20239;-76
2023/01/18 06:12:50;;;;;;;15.30;5.13;;;;;;;12.01;77.17;95735.50;5007853;28;20572;-77
2023/01/18 06:15:17;;;;;;;11.67;4.80;;;;;;;12.21;75.94;95755.63;5007234;28;20692;-71
2023/01/18 06:17:45;;;;;;;19.43;6.30;;;;;;;12.28;76.15;95762.03;5005632;28;20224;-72
2023/01/18 06:20:13;;;;;;;17.53;5.83;;;;;;;12.31;76.00;95751.44;5008505;28;20225;-75
2023/01/18 06:22:40;;;;;;;13.23;5.57;;;;;;;12.30;75.90;95742.00;5006881;28;20224;-75
2023/01/18 06:25:08;;;;;;;16.73;4.07;;;;;;;12.31;75.48;95756.63;5008384;28;20190;-74
2023/01/18 06:27:37;;;;;;;11.23;3.97;;;;;;;12.42;75.65;95758.44;5006514;28;20243;-73
2023/01/18 06:30:05;;;;;;;13.60;5.13;;;;;;;12.44;75.37;95747.00;5007457;28;20232;-74
2023/01/18 06:32:33;;;;;;;9.83;4.30;;;;;;;12.49;75.10;95750.06;5008446;28;20188;-75
2023/01/18 06:35:00;;;;;;;15.70;4.83;;;;;;;12.59;75.21;95745.84;5006800;28;20245;-72
2023/01/18 06:37:29;;;;;;;15.40;5.90;;;;;;;12.70;75.19;95743.28;5008323;28;20282;-75
2023/01/18 06:39:56;;;;;;;16.07;5.13;;;;;;;12.71;75.21;95764.91;5006633;28;20221;-73
2023/01/18 06:42:23;;;;;;;12.73;4.47;;;;;;;12.82;75.48;95752.75;5008264;28;20236;-73
2023/01/18 06:44:50;;;;;;;14.03;5.70;;;;;;;12.71;75.48;95770.94;5007147;28;20194;-73
2023/01/18 06:47:18;;;;;;;13.20;4.20;;;;;;;12.64;75.72;95764.53;5006192;28;20224;-72
2023/01/18 06:49:48;;;;;;;14.93;5.20;;;;;;;12.60;76.18;95762.25;5007754;28;20194;-73
2023/01/18 06:52:16;;;;;;;14.23;4.60;;;;;;;12.67;76.49;95769.50;5006350;28;20198;-72
2023/01/18 06:54:43;;;;;;;17.43;5.33;;;;;;;12.74;76.78;95783.69;5007814;28;20714;-72
2023/01/18 06:57:11;;;;;;;17.07;5.57;;;;;;;12.76;76.40;95781.78;5006333;28;20573;-72
2023/01/18 06:59:38;;;;;;;16.87;5.03;;;;;;;12.86;75.87;95797.50;5007970;28;20261;-71
2023/01/18 07:02:06;;;;;;;15.30;5.07;;;;;;;12.83;77.12;95792.56;5006956;28;20257;-72
2023/01/18 07:04:36;;;;;;;11.40;4.07;;;;;;;12.75;76.78;95806.13;5007278;28;21119;-72
2023/01/18 07:07:04;;;;;;;16.13;5.37;;;;;;;12.88;76.96;95808.66;5006420;28;20249;-74
2023/01/18 07:09:30;;;;;;;20.83;5.20;;;;;;;12.96;76.52;95801.13;5006104;28;20219;-78
2023/01/18 07:11:58;;;;;;;12.30;4.30;;;;;;;12.96;76.97;95807.09;5006156;28;20229;-76
2023/01/18 07:14:25;;;;;;;16.17;5.87;;;;;;;12.90;76.88;95806.78;5006309;28;20655;-74
2023/01/18 07:16:52;;;;;;;14.20;5.93;;;;;;;12.93;76.69;95796.97;5006430;28;20586;-75
2023/01/18 07:19:19;;;;;;;16.47;4.60;;;;;;;13.05;76.81;95810.84;5006760;28;20287;-76
2023/01/18 07:21:47;;;;;;;15.00;5.20;;;;;;;12.77;76.95;95775.66;5007122;28;20720;-74
2023/01/18 07:24:14;;;;;;;19.60;5.33;;;;;;;12.97;75.99;95772.41;4990147;28;20201;-75
2023/01/18 07:26:41;;;;;;;16.07;4.93;;;;;;;13.24;76.42;95799.88;5006116;28;20749;-78
2023/01/18 07:29:08;;;;;;;12.33;5.63;;;;;;;13.43;75.15;95793.16;5007743;28;20203;-73
2023/01/18 07:31:37;;;;;;;22.43;7.27;;;;;;;13.40;75.10;95782.16;5005778;28;20277;-73
2023/01/18 07:34:04;;;;;;;21.13;7.10;;;;;;;13.55;75.38;95802.63;5006479;28;20207;-76
2023/01/18 07:36:31;;;;;;;20.87;6.90;;;;;;;13.58;74.86;95799.78;5006143;28;20183;-74
2023/01/18 07:39:00;;;;;;;15.43;5.10;;;;;;;13.53;75.52;95811.47;5007116;28;20281;-73
2023/01/18 07:41:27;;;;;;;19.53;5.60;;;;;;;13.67;74.71;95793.88;5007061;28;20197;-73
2023/01/18 07:43:56;;;;;;;14.63;5.23;;;;;;;13.66;75.03;95804.41;4988168;28;20620;-72
2023/01/18 07:46:25;;;;;;;16.27;5.67;;;;;;;13.89;74.55;95813.81;5007247;28;20200;-74
2023/01/18 07:48:52;;;;;;;16.43;3.93;;;;;;;14.08;71.52;95808.84;5005931;28;20200;-71
2023/01/18 07:51:23;;;;;;;15.13;4.47;;;;;;;14.20;70.58;95813.06;5006899;28;20740;-74
2023/01/18 07:53:54;;;;;;;11.70;3.67;;;;;;;14.21;70.49;95809.53;5004015;28;20748;-73
2023/01/18 07:56:24;;;;;;;14.33;4.57;;;;;;;14.32;69.50;95822.53;5005208;28;20932;-72
2023/01/18 07:58:52;;;;;;;14.77;4.13;;;;;;;14.40;69.31;95814.97;5005571;28;20196;-72
2023/01/18 08:01:21;;;;;;;11.73;3.50;;;;;;;14.45;68.91;95806.75;5005593;28;20229;-72
2023/01/18 08:03:49;;;;;;;11.97;4.00;;;;;;;14.55;68.77;95823.28;5006924;28;20199;-73
2023/01/18 08:06:23;;;;;;;18.17;4.47;;;;;;;14.66;68.20;95812.84;5005284;28;20651;-72
2023/01/18 08:08:51;;;;;;;11.83;4.60;;;;;;;14.75;67.75;95819.09;5006777;28;20207;-73
2023/01/18 08:11:18;;;;;;;15.20;5.17;;;;;;;14.78;68.12;95818.81;5005645;28;20226;-76
2023/01/18 08:13:48;;;;;;;16.70;4.77;;;;;;;14.75;68.17;95798.22;5021461;28;20763;-73
2023/01/18 08:16:15;;;;;;;17.37;4.00;;;;;;;14.88;68.13;95806.72;5006937;28;20246;-73
2023/01/18 08:18:44;;;;;;;13.40;3.27;;;;;;;14.84;67.35;95802.69;5005058;28;20227;-74
2023/01/18 08:21:12;;;;;;;16.90;5.33;;;;;;;14.87;67.85;95828.50;5007008;28;20191;-73
2023/01/18 08:23:40;;;;;;;11.17;2.87;;;;;;;14.90;66.67;95812.63;5005163;28;20828;-72
2023/01/18 08:26:08;;;;;;;17.10;3.90;;;;;;;14.98;67.14;95810.22;5006856;28;20267;-74
2023/01/18 08:28:35;;;;;;;17.93;4.03;;;;;;;14.96;66.78;95822.53;5005643;28;20191;-72
2023/01/18 08:31:16;;;;;;;9.47;3.67;;;;;;;15.00;66.94;95818.72;5004949;28;20224;-72
2023/01/18 08:34:23;;;;;;;17.93;5.00;;;;;;;15.14;66.53;95831.44;5008686;28;20190;-72
2023/01/18 08:37:43;;;;;;;14.90;4.07;;;;;;;15.25;66.23;95826.19;5008578;28;20199;-73
2023/01/18 08:41:04;;;;;;;10.47;4.97;;;;;;;15.20;67.50;95836.16;5006550;28;20195;-74
2023/01/18 08:44:25;;;;;;;12.57;3.90;;;;;;;15.00;67.85;95842.19;4993599;28;20187;-74
2023/01/18 08:47:45;;;;;;;10.17;3.63;;;;;;;14.82;69.00;95835.88;5009872;28;20222;-76
2023/01/18 08:51:06;;;;;;;11.63;4.03;;;;;;;14.91;69.00;95855.97;5006675;28;20543;-73
2023/01/18 08:54:26;;;;;;;14.90;4.33;;;;;;;14.76;69.36;95850.22;4992185;28;20192;-74
2023/01/18 08:57:47;;;;;;;15.63;6.13;;;;;;;14.94;68.33;95846.09;5007152;28;20180;-77
2023/01/18 09:01:08;;;;;;;15.60;5.57;;;;;;;15.17;68.24;95852.03;5009447;28;20288;-76
2023/01/18 09:04:28;;;;;;;14.90;5.40;;;;;;;15.57;65.97;95846.97;5007530;28;20199;-74
2023/01/18 09:07:49;;;;;;;12.53;4.30;;;;;;;15.87;62.86;95839.97;5008009;28;20286;-73
2023/01/18 09:11:10;;;;;;;20.07;4.07;;;;;;;16.03;62.15;95852.53;5006119;28;20219;-72
2023/01/18 09:14:34;;;;;;;14.50;3.43;;;;;;;15.97;61.46;95851.25;5009322;28;20197;-73
2023/01/18 09:17:54;;;;;;;8.63;2.63;;;;;;;15.91;61.58;95853.59;5008874;28;20231;-73
2023/01/18 09:21:16;;;;;;;15.73;3.10;;;;;;;16.16;61.05;95843.50;5005871;28;20191;-73
2023/01/18 09:24:36;;;;;;;11.77;3.60;;;;;;;16.40;60.27;95848.38;5005400;28;20274;-72
2023/01/18 09:27:57;;;;;;;9.17;3.00;;;;;;;16.56;58.75;95840.88;5008723;28;20598;-72
2023/01/18 09:31:18;;;;;;;13.23;3.23;;;;;;;16.65;57.89;95849.69;5008548;28;20326;-71
2023/01/18 09:34:39;;;;;;;18.27;4.13;;;;;;;16.81;59.55;95853.44;5006620;28;20198;-72
2023/01/18 09:38:00;;;;;;;13.97;3.83;;;;;;;16.87;59.01;95850.25;5007351;28;20203;-72
2023/01/18 09:41:20;;;;;;;9.47;3.33;;;;;;;16.96;59.39;95866.94;5005705;28;20200;-71
2023/01/18 09:44:44;;;;;;;6.40;3.20;;;;;;;17.04;59.96;95873.09;5008557;28;20215;-72
2023/01/18 09:48:11;;;;;;;8.70;3.10;;;;;;;16.96;60.20;95870.34;5007431;28;20571;-72
2023/01/18 09:51:32;;;;;;;14.57;2.90;;;;;;;17.03;60.98;95886.31;5006956;28;20337;-72
2023/01/18 09:54:28;;;;;;;7.87;3.37;;;;;;;16.82;61.62;95890.84;5004728;28;20700;-73
2023/01/18 09:57:17;;;;;;;10.53;3.13;;;;;;;17.02;61.68;95879.44;5006625;28;20210;-74
2023/01/18 10:00:38;;;;;;;10.93;3.40;;;;;;;17.04;61.11;95885.38;5007426;28;20592;-72
2023/01/18 10:04:01;;;;;;;13.43;3.37;;;;;;;17.27;59.37;95872.84;5006434;28;20183;-75
2023/01/18 10:06:45;;;;;;;16.73;4.20;;;;;;;17.59;57.86;95895.13;5004363;28;20205;-74
2023/01/18 10:10:06;;;;;;;8.47;3.37;;;;;;;17.37;57.98;95900.63;5007576;28;20187;-73
2023/01/18 10:13:21;;;;;;;9.57;3.87;;;;;;;17.49;57.99;95888.22;5006936;28;20242;-73
2023/01/18 10:16:42;;;;;;;11.73;3.30;;;;;;;17.69;56.61;95884.63;5007959;28;20280;-72
2023/01/18 10:20:06;;;;;;;10.80;3.47;;;;;;;17.64;57.03;95864.09;5006926;28;20237;-73
2023/01/18 10:23:28;;;;;;;12.03;4.00;;;;;;;17.74;56.37;95853.63;5005843;28;20201;-73
2023/01/18 10:26:52;;;;;;;13.03;3.00;;;;;;;17.84;55.93;95857.03;5009477;28;20189;-74
2023/01/18 10:29:58;;;;;;;14.70;4.00;;;;;;;18.03;55.69;95871.84;5006274;28;20231;-73
2023/01/18 10:33:19;;;;;;;18.57;3.60;;;;;;;18.19;53.73;95867.66;5007645;28;20730;-72
2023/01/18 10:36:40;;;;;;;5.43;2.20;;;;;;;18.22;54.37;95866.50;4991134;28;20197;-75
2023/01/18 10:40:11;;;;;;;14.33;2.77;;;;;;;18.32;52.58;95867.31;5005367;28;20275;-73
2023/01/18 10:43:32;;;;;;;8.40;2.60;;;;;;;18.45;52.11;95873.03;5004217;28;20282;-73
2023/01/18 10:46:52;;;;;;;8.23;2.73;;;;;;;18.34;50.47;95881.91;5006911;28;20292;-75
2023/01/18 10:50:19;;;;;;;9.43;3.00;;;;;;;18.50;50.02;95881.31;5005174;28;20609;-75
2023/01/18 10:53:39;;;;;;;8.70;2.57;;;;;;;18.44;49.96;95879.28;5007003;28;20190;-75
2023/01/18 10:57:00;;;;;;;6.87;2.20;;;;;;;18.55;49.34;95882.50;5006618;28;20256;-74
2023/01/18 11:00:20;;;;;;;11.43;2.63;;;;;;;18.50;48.34;95887.38;5003272;28;20190;-76
2023/01/18 11:03:41;;;;;;;9.60;3.63;;;;;;;18.51;47.56;95896.88;5006275;28;20273;-71
2023/01/18 11:07:04;;;;;;;7.27;2.30;;;;;;;18.63;47.49;95897.50;5006549;28;20191;-73
2023/01/18 11:10:25;;;;;;;10.30;2.70;;;;;;;18.68;47.00;95892.66;5007196;28;20569;-73
2023/01/18 11:14:01;;;;;;;8.10;2.70;;;;;;;18.65;47.43;95896.38;5005614;28;20220;-73
2023/01/18 11:17:22;;;;;;;6.37;2.33;;;;;;;18.76;46.79;95882.25;5005952;28;20682;-73
2023/01/18 11:20:49;;;;;;;6.87;2.30;;;;;;;18.77;46.48;95872.59;5007776;28;20228;-73
2023/01/18 11:23:54;;;;;;;6.37;2.00;;;;;;;18.81;47.56;95885.25;5005230;28;20217;-72
2023/01/18 11:27:23;;;;;;;15.43;3.80;;;;;;;18.92;47.02;95887.66;5008317;28;20191;-73
2023/01/18 11:30:44;;;;;;;8.90;2.90;;;;;;;18.79;47.00;95892.47;5005393;28;20269;-72
2023/01/18 11:33:50;;;;;;;10.00;2.80;;;;;;;18.66;47.49;95894.59;5007074;28;20190;-73
2023/01/18 11:37:20;;;;;;;8.27;2.50;;;;;;;18.44;47.57;95892.38;5006206;28;20201;-72
2023/01/18 11:40:21;;;;;;;9.90;2.80;;;;;;;18.47;47.75;95889.44;5006968;28;20696;-73
2023/01/18 11:43:44;;;;;;;7.03;2.40;;;;;;;18.33;48.20;95892.53;4987030;28;20279;-73
2023/01/18 11:47:08;;;;;;;9.47;2.47;;;;;;;18.12;48.96;95902.41;5004691;28;20859;-72
2023/01/18 11:50:14;;;;;;;8.40;3.43;;;;;;;18.18;48.88;95880.88;5004782;28;20295;-74
2023/01/18 11:53:29;;;;;;;10.33;3.10;;;;;;;18.18;48.95;95892.19;5008395;28;20205;-75
2023/01/18 11:56:55;;;;;;;8.97;2.87;;;;;;;18.11;49.00;95885.88;5005478;28;20193;-74
2023/01/18 12:00:15;;;;;;;8.17;3.20;;;;;;;18.06;49.44;95895.97;4988823;28;20189;-73
2023/01/18 12:03:36;;;;;;;9.97;3.00;;;;;;;18.02;49.43;95906.88;5006935;28;20233;-75
2023/01/18 12:06:40;;;;;;;7.50;2.70;;;;;;;17.93;49.55;95886.78;5008237;28;20629;-73
2023/01/18 12:10:15;;;;;;;10.23;3.40;;;;;;;17.72;49.82;95887.78;5007694;28;20260;-74
2023/01/18 12:13:32;;;;;;;10.23;2.47;;;;;;;17.63;50.12;95916.63;5009011;28;20724;-74
2023/01/18 12:17:01;;;;;;;11.47;2.30;;;;;;;17.57;50.45;95917.19;4978741;28;20217;-72
2023/01/18 12:20:00;;;;;;;7.60;2.53;;;;;;;17.61;50.09;95927.25;5010255;28;20190;-72
2023/01/18 12:22:59;;;;;;;10.20;3.00;;;;;;;17.55;50.41;95929.59;5009725;28;20193;-72
2023/01/18 12:26:12;;;;;;;14.63;2.77;;;;;;;17.54;50.28;95928.75;5010035;28;20348;-74
2023/01/18 12:29:15;;;;;;;8.40;2.23;;;;;;;17.53;50.51;95921.88;5011648;28;20196;-72
2023/01/18 12:32:32;;;;;;;10.13;2.67;;;;;;;17.57;50.92;95927.66;5008511;28;20281;-72
2023/01/18 12:35:36;;;;;;;12.93;3.10;;;;;;;17.56;50.54;95923.38;5008721;28;20244;-73
2023/01/18 12:38:56;;;;;;;9.30;2.80;;;;;;;17.62;50.66;95931.50;4991673;28;20649;-73
2023/01/18 12:42:32;;;;;;;9.80;3.53;;;;;;;17.58;50.45;95935.34;5009726;28;20688;-72
2023/01/18 12:46:05;;;;;;;9.40;3.13;;;;;;;17.56;51.25;95932.06;5009985;28;20480;-72
2023/01/18 12:49:33;;;;;;;11.03;3.57;;;;;;;17.68;50.63;95943.22;5009808;28;20659;-73
2023/01/18 12:52:54;;;;;;;22.27;5.10;;;;;;;17.61;51.01;95961.28;5007628;28;20225;-72
2023/01/18 12:56:14;;;;;;;10.17;3.20;;;;;;;17.59;50.92;95971.06;5008473;28;20227;-73
2023/01/18 12:59:38;;;;;;;13.03;3.13;;;;;;;17.60;50.33;95972.69;5009618;28;20264;-73
2023/01/18 13:03:17;;;;;;;10.67;2.73;;;;;;;17.52;50.91;95967.31;4993326;28;20218;-73
2023/01/18 13:06:37;;;;;;;13.90;2.93;;;;;;;17.36;51.72;95976.66;5009001;28;20195;-74
2023/01/18 13:09:58;;;;;;;10.60;2.77;;;;;;;17.34;50.91;95989.91;5008093;28;20639;-73
2023/01/18 13:13:18;;;;;;;9.30;3.33;;;;;;;17.34;50.81;95995.13;5008732;28;20221;-74
2023/01/18 13:16:14;;;;;;;13.73;3.43;;;;;;;17.34;50.83;95989.91;5007505;28;20341;-74
2023/01/18 13:19:41;;;;;;;15.43;3.53;;;;;;;17.36;50.64;96003.66;5007904;28;20611;-74
2023/01/18 13:22:45;;;;;;;9.50;3.13;;;;;;;17.25;50.85;95987.28;4989387;28;20635;-72